Time;durP1;ratioP1;P1;durP2;ratioP2;P2;SDS_P1;SDS_P2;PMS_P1;PMS_P2;Temp;Humidity;BMP_temperature;BMP_pressure;BME280_temperature;BME280_humidity;BME280_pressure;Samples;Min_cycle;Max_cycle;Signal;HPM_P1;HPM_P2
2021/12/10 00:01:10;;;;;;;12.70;11.73;;;2.20;99.90;;;;;;5015570;28;20972;-75
2021/12/10 00:03:42;;;;;;;12.83;12.03;;;2.10;99.90;;;;;;5015653;28;20448;-76
2021/12/10 00:06:12;;;;;;;13.63;12.27;;;2.10;99.90;;;;;;5011638;28;20458;-76
2021/12/10 00:08:44;;;;;;;12.90;11.90;;;2.10;99.90;;;;;;5014167;28;20443;-76
2021/12/10 00:11:15;;;;;;;12.93;11.93;;;2.00;99.90;;;;;;5012985;28;20481;-76
2021/12/10 00:13:45;;;;;;;12.60;11.70;;;2.00;99.90;;;;;;5024448;28;20449;-75
2021/12/10 00:16:12;;;;;;;12.47;11.57;;;1.90;99.90;;;;;;5007076;28;20974;-76
2021/12/10 00:18:45;;;;;;;12.57;11.70;;;1.80;99.90;;;;;;5010160;28;20925;-76
2021/12/10 00:21:12;;;;;;;12.30;11.60;;;1.80;99.90;;;;;;5011205;28;20526;-76
2021/12/10 00:23:38;;;;;;;12.93;11.77;;;1.80;99.90;;;;;;5008773;28;20462;-76
2021/12/10 00:26:07;;;;;;;12.50;11.50;;;1.80;99.90;;;;;;5007094;28;20435;-76
2021/12/10 00:28:38;;;;;;;12.30;11.50;;;1.70;99.90;;;;;;5003512;28;20478;-75
2021/12/10 00:31:18;;;;;;;12.10;11.30;;;1.70;99.90;;;;;;5003671;28;20965;-76
2021/12/10 00:33:53;;;;;;;12.57;11.57;;;1.70;99.90;;;;;;5001118;28;20445;-76
2021/12/10 00:36:20;;;;;;;12.37;11.57;;;1.60;99.90;;;;;;5011624;28;20454;-75
2021/12/10 00:38:47;;;;;;;12.00;11.30;;;1.60;99.90;;;;;;5007019;28;20484;-76
2021/12/10 00:41:15;;;;;;;12.70;11.70;;;1.60;99.90;;;;;;5013703;28;20500;-76
2021/12/10 00:43:42;;;;;;;11.90;11.13;;;1.60;99.90;;;;;;5009882;28;20454;-75
2021/12/10 00:46:09;;;;;;;12.30;11.60;;;1.50;99.90;;;;;;5014753;28;20437;-76
2021/12/10 00:48:37;;;;;;;12.60;11.50;;;1.50;99.90;;;;;;4999327;28;20542;-75
2021/12/10 00:51:06;;;;;;;12.47;11.67;;;1.50;99.90;;;;;;5014552;28;20875;-76
2021/12/10 00:53:33;;;;;;;12.87;11.97;;;1.50;99.90;;;;;;5023218;28;20957;-76
2021/12/10 00:56:00;;;;;;;12.20;11.40;;;1.50;99.90;;;;;;5014599;28;20436;-75
2021/12/10 00:58:29;;;;;;;12.90;12.00;;;1.50;99.90;;;;;;5013023;28;20472;-75
2021/12/10 01:00:59;;;;;;;11.93;11.23;;;1.50;99.90;;;;;;5012084;28;20545;-75
2021/12/10 01:03:31;;;;;;;12.93;11.93;;;1.50;99.90;;;;;;5010039;28;20454;-76
2021/12/10 01:06:01;;;;;;;12.57;11.67;;;1.50;99.90;;;;;;5010834;28;20925;-75
2021/12/10 01:08:28;;;;;;;12.00;11.20;;;1.40;99.90;;;;;;5003468;28;20445;-76
2021/12/10 01:10:59;;;;;;;12.60;11.70;;;1.40;99.90;;;;;;5017212;28;20891;-75
2021/12/10 01:13:31;;;;;;;12.63;11.60;;;1.40;99.90;;;;;;5014308;28;20447;-75
2021/12/10 01:16:15;;;;;;;12.83;11.93;;;1.40;99.90;;;;;;5007347;28;20528;-76
2021/12/10 01:24:32;;;;;;;12.83;11.73;;;1.30;99.90;;;;;;5003370;28;20487;-76
2021/12/10 01:27:08;;;;;;;12.17;11.33;;;1.30;99.90;;;;;;5003211;28;20449;-76
2021/12/10 01:29:40;;;;;;;13.03;12.03;;;1.40;99.90;;;;;;5008999;28;20452;-76
2021/12/10 01:32:11;;;;;;;12.80;11.90;;;1.30;99.90;;;;;;5012723;28;20499;-76
2021/12/10 01:34:38;;;;;;;13.80;12.40;;;1.30;99.90;;;;;;5013915;28;20510;-76
2021/12/10 01:37:05;;;;;;;13.13;12.03;;;1.20;99.90;;;;;;5003475;28;20934;-75
2021/12/10 01:39:35;;;;;;;12.93;11.97;;;1.20;99.90;;;;;;5004327;28;20890;-76
2021/12/10 01:42:14;;;;;;;13.80;12.70;;;1.20;99.90;;;;;;5011106;28;20457;-76
2021/12/10 01:44:45;;;;;;;13.10;12.07;;;1.20;99.90;;;;;;5002639;28;20424;-76
2021/12/10 01:47:15;;;;;;;13.10;12.07;;;1.20;99.90;;;;;;5010673;28;20452;-76
2021/12/10 01:49:43;;;;;;;13.17;12.20;;;1.20;99.90;;;;;;5007565;28;20455;-76
2021/12/10 01:52:11;;;;;;;19.93;14.13;;;1.10;99.90;;;;;;5004251;28;20456;-76
2021/12/10 01:54:42;;;;;;;13.13;12.23;;;1.10;99.90;;;;;;5008532;28;20440;-76
2021/12/10 01:57:11;;;;;;;13.47;12.40;;;1.00;99.90;;;;;;5026192;28;20511;-75
2021/12/10 01:59:39;;;;;;;13.27;12.37;;;1.00;99.90;;;;;;5005971;28;20460;-76
2021/12/10 02:02:10;;;;;;;13.57;12.57;;;1.00;99.90;;;;;;5008966;28;20436;-77
2021/12/10 02:04:39;;;;;;;13.47;12.47;;;1.00;99.90;;;;;;4999737;28;20435;-76
2021/12/10 02:07:08;;;;;;;15.67;12.60;;;1.00;99.90;;;;;;5012667;28;20436;-75
2021/12/10 02:09:35;;;;;;;14.37;13.17;;;1.00;99.90;;;;;;5021160;28;21066;-76
2021/12/10 02:12:03;;;;;;;14.33;13.23;;;1.00;99.90;;;;;;5013884;28;20440;-76
2021/12/10 02:14:29;;;;;;;13.83;12.83;;;0.90;99.90;;;;;;5005368;28;20483;-76
2021/12/10 02:16:58;;;;;;;14.00;13.00;;;0.90;99.90;;;;;;5011830;28;20452;-76
2021/12/10 02:19:28;;;;;;;13.60;12.60;;;0.90;99.90;;;;;;5019993;28;20474;-76
2021/12/10 02:21:58;;;;;;;14.60;13.40;;;0.90;99.90;;;;;;5005982;28;20439;-76
2021/12/10 02:24:25;;;;;;;15.13;13.50;;;0.90;99.90;;;;;;5012829;28;20640;-76
2021/12/10 02:26:55;;;;;;;14.10;12.90;;;0.90;99.90;;;;;;5006101;28;20441;-75
2021/12/10 02:29:25;;;;;;;14.43;13.33;;;0.80;99.90;;;;;;5012144;28;20459;-76
2021/12/10 02:31:53;;;;;;;13.70;12.67;;;0.90;99.90;;;;;;5013072;28;20440;-76
2021/12/10 02:34:20;;;;;;;15.20;13.97;;;0.80;99.90;;;;;;5011714;28;20494;-76
2021/12/10 02:36:47;;;;;;;15.17;13.63;;;0.90;99.90;;;;;;5006032;28;21034;-76
2021/12/10 02:39:17;;;;;;;14.93;13.67;;;0.90;99.90;;;;;;5012745;28;20538;-76
2021/12/10 02:41:44;;;;;;;14.67;13.47;;;0.90;99.90;;;;;;5007115;28;20492;-75
2021/12/10 02:44:13;;;;;;;14.87;13.57;;;0.90;99.90;;;;;;5009006;28;20444;-76
2021/12/10 02:46:41;;;;;;;15.07;13.83;;;0.90;99.90;;;;;;5012657;28;20436;-76
2021/12/10 02:49:12;;;;;;;14.53;13.33;;;0.90;99.90;;;;;;5003519;28;20461;-75
2021/12/10 02:51:40;;;;;;;14.63;13.43;;;0.90;99.90;;;;;;5010647;28;20448;-75
2021/12/10 02:54:10;;;;;;;14.70;13.70;;;0.90;99.90;;;;;;5012053;28;20527;-75
2021/12/10 02:56:40;;;;;;;14.80;13.70;;;0.90;99.90;;;;;;5018922;28;20462;-77
2021/12/10 02:59:07;;;;;;;15.00;13.90;;;0.90;99.90;;;;;;5002978;28;20564;-76
2021/12/10 03:01:40;;;;;;;15.17;14.00;;;0.90;99.90;;;;;;5004245;28;20433;-76
2021/12/10 03:04:08;;;;;;;15.27;14.03;;;0.80;99.90;;;;;;5003749;28;20879;-76
2021/12/10 03:06:37;;;;;;;15.03;13.70;;;0.80;99.90;;;;;;5000787;28;20433;-76
2021/12/10 03:09:05;;;;;;;15.17;14.07;;;0.80;99.90;;;;;;5024105;28;20440;-76
2021/12/10 03:11:36;;;;;;;15.00;13.80;;;0.90;99.90;;;;;;5063588;22;20876;-83
2021/12/10 03:14:10;;;;;;;15.33;14.07;;;0.90;99.90;;;;;;5044131;28;20488;-84
2021/12/10 03:16:38;;;;;;;14.90;13.80;;;1.00;99.90;;;;;;5043594;28;20422;-83
2021/12/10 03:19:05;;;;;;;14.93;13.90;;;0.90;99.90;;;;;;5043315;28;20475;-83
2021/12/10 03:21:34;;;;;;;15.70;14.40;;;0.90;99.90;;;;;;5036120;28;20467;-82
2021/12/10 03:24:01;;;;;;;15.90;14.60;;;0.90;99.90;;;;;;5024797;28;20454;-84
2021/12/10 03:26:28;;;;;;;15.33;14.13;;;0.90;99.90;;;;;;5018843;28;20461;-82
2021/12/10 03:28:55;;;;;;;15.13;13.97;;;0.90;99.90;;;;;;5036852;28;20463;-83
2021/12/10 03:31:25;;;;;;;14.77;13.67;;;0.90;99.90;;;;;;5020993;28;20463;-83
2021/12/10 03:33:54;;;;;;;15.63;14.40;;;0.90;99.90;;;;;;5042701;28;20450;-82
2021/12/10 03:36:21;;;;;;;15.10;14.00;;;0.90;99.90;;;;;;5023488;28;20440;-79
2021/12/10 03:38:48;;;;;;;15.30;14.10;;;0.90;99.90;;;;;;5024826;28;20983;-81
2021/12/10 03:41:16;;;;;;;15.83;14.67;;;1.00;99.90;;;;;;5029817;28;20517;-81
2021/12/10 03:43:47;;;;;;;15.13;13.93;;;0.90;99.90;;;;;;5034402;28;20452;-83
2021/12/10 03:46:14;;;;;;;14.80;13.70;;;0.90;99.90;;;;;;5030531;28;20501;-79
2021/12/10 03:48:45;;;;;;;15.57;14.27;;;1.00;99.90;;;;;;5031822;28;20899;-79
2021/12/10 03:51:14;;;;;;;16.20;14.97;;;1.00;99.90;;;;;;5025132;28;20979;-80
2021/12/10 03:53:41;;;;;;;16.13;15.03;;;1.00;99.90;;;;;;5032359;28;20454;-78
2021/12/10 03:56:12;;;;;;;15.43;14.30;;;1.00;99.90;;;;;;5031407;28;20443;-79
2021/12/10 03:58:40;;;;;;;16.33;14.67;;;1.00;99.90;;;;;;5036243;28;20483;-79
2021/12/10 04:01:11;;;;;;;15.40;14.23;;;1.00;99.90;;;;;;5053069;28;20469;-79
2021/12/10 04:03:39;;;;;;;15.10;14.00;;;1.00;99.90;;;;;;5028441;28;20442;-81
2021/12/10 04:06:07;;;;;;;15.33;14.23;;;1.00;99.90;;;;;;5029909;28;20503;-80
2021/12/10 04:08:34;;;;;;;16.30;15.00;;;1.00;99.90;;;;;;5032388;28;20476;-80
2021/12/10 04:11:04;;;;;;;16.50;15.10;;;1.00;99.90;;;;;;5043588;28;20503;-81
2021/12/10 04:13:31;;;;;;;16.70;15.50;;;1.00;99.90;;;;;;5025295;28;20475;-80
2021/12/10 04:15:58;;;;;;;16.50;15.00;;;1.00;99.90;;;;;;5031234;28;20509;-79
2021/12/10 04:18:25;;;;;;;15.43;14.23;;;1.00;99.90;;;;;;5033398;28;20468;-83
2021/12/10 04:20:52;;;;;;;16.47;15.17;;;1.00;99.90;;;;;;5033637;28;20506;-82
2021/12/10 04:23:23;;;;;;;16.17;14.80;;;1.00;99.90;;;;;;5027642;28;20452;-83
2021/12/10 04:25:50;;;;;;;16.30;15.00;;;1.00;99.90;;;;;;5037549;28;20436;-84
2021/12/10 04:28:20;;;;;;;16.90;15.43;;;1.00;99.90;;;;;;5033305;28;20471;-83
2021/12/10 04:30:48;;;;;;;16.53;15.37;;;1.00;99.90;;;;;;5037857;28;20893;-81
2021/12/10 04:33:18;;;;;;;15.77;14.67;;;0.90;99.90;;;;;;5031303;28;20512;-82
2021/12/10 04:35:47;;;;;;;17.67;16.37;;;0.90;99.90;;;;;;5029555;28;20443;-81
2021/12/10 04:38:15;;;;;;;17.20;15.60;;;0.80;99.90;;;;;;5029196;28;20895;-79
2021/12/10 04:40:46;;;;;;;18.53;17.13;;;0.90;99.90;;;;;;5029404;28;20893;-82
2021/12/10 04:43:14;;;;;;;17.10;15.73;;;0.80;99.90;;;;;;5024307;28;20972;-81
2021/12/10 04:45:40;;;;;;;17.20;16.00;;;0.80;99.90;;;;;;5023167;28;20451;-81
2021/12/10 04:48:07;;;;;;;16.80;15.50;;;0.80;99.90;;;;;;5040710;28;20450;-81
2021/12/10 04:50:34;;;;;;;17.37;15.97;;;0.80;99.90;;;;;;5039059;28;20557;-81
2021/12/10 04:53:05;;;;;;;17.93;16.40;;;0.70;99.90;;;;;;5036154;28;20468;-81
2021/12/10 04:55:34;;;;;;;17.63;16.07;;;0.70;99.90;;;;;;5034918;28;20451;-81
2021/12/10 05:00:42;;;;;;;19.70;17.80;;;0.70;99.90;;;;;;5025960;28;20545;-81
2021/12/10 05:03:13;;;;;;;19.13;17.43;;;0.70;99.90;;;;;;5026493;28;20458;-81
2021/12/10 05:05:43;;;;;;;19.33;17.57;;;0.70;99.90;;;;;;5032324;28;20975;-83
2021/12/10 05:08:10;;;;;;;18.10;16.50;;;0.70;99.90;;;;;;5034207;28;20485;-83
2021/12/10 05:10:38;;;;;;;17.70;16.20;;;0.60;99.90;;;;;;5028054;28;20494;-82
2021/12/10 05:13:07;;;;;;;17.20;15.83;;;0.60;99.90;;;;;;5029172;28;20439;-83
2021/12/10 05:15:37;;;;;;;17.57;16.13;;;0.60;99.90;;;;;;5029278;28;20442;-83
2021/12/10 05:18:05;;;;;;;16.87;15.57;;;0.70;99.90;;;;;;5035926;28;20454;-83
2021/12/10 05:20:37;;;;;;;17.43;16.00;;;0.70;99.90;;;;;;5033518;28;20452;-84
2021/12/10 05:23:05;;;;;;;17.27;15.73;;;0.70;99.90;;;;;;5024549;28;20455;-83
2021/12/10 05:25:32;;;;;;;16.43;15.23;;;0.70;99.90;;;;;;5032069;28;20948;-83
2021/12/10 05:28:00;;;;;;;17.53;16.10;;;0.60;99.90;;;;;;5033066;28;20466;-83
2021/12/10 05:30:31;;;;;;;18.33;16.93;;;0.60;99.90;;;;;;5027940;28;20462;-83
2021/12/10 05:33:00;;;;;;;16.90;15.67;;;0.50;99.90;;;;;;5028732;28;20442;-83
2021/12/10 05:35:28;;;;;;;17.97;16.30;;;0.50;99.90;;;;;;5028808;28;20451;-83
2021/12/10 05:37:55;;;;;;;17.23;15.77;;;0.50;99.90;;;;;;5029408;28;20443;-83
2021/12/10 05:40:23;;;;;;;17.73;16.27;;;0.50;99.90;;;;;;5050274;28;20479;-81
2021/12/10 05:42:50;;;;;;;17.97;16.40;;;0.40;99.90;;;;;;5033999;28;20451;-82
2021/12/10 05:45:19;;;;;;;17.33;15.93;;;0.50;99.90;;;;;;5026070;28;20454;-84
2021/12/10 05:47:48;;;;;;;16.70;15.40;;;0.50;99.90;;;;;;5036329;28;20454;-85
2021/12/10 05:50:19;;;;;;;16.97;15.57;;;0.50;99.90;;;;;;5025746;28;20471;-84
2021/12/10 05:52:46;;;;;;;16.83;15.23;;;0.50;99.90;;;;;;5027072;28;20451;-85
2021/12/10 05:55:13;;;;;;;16.53;15.23;;;0.40;99.90;;;;;;5032363;28;21065;-84
2021/12/10 05:57:40;;;;;;;16.90;15.53;;;0.40;99.90;;;;;;5032364;28;20451;-84
2021/12/10 06:00:12;;;;;;;18.53;16.83;;;0.40;99.90;;;;;;5032271;28;20483;-84
2021/12/10 06:02:39;;;;;;;17.93;16.43;;;0.40;99.90;;;;;;5030588;28;20462;-84
2021/12/10 06:05:08;;;;;;;18.50;16.67;;;0.40;99.90;;;;;;5025159;28;20447;-79
2021/12/10 06:07:35;;;;;;;18.47;16.83;;;0.40;99.90;;;;;;5024833;28;20509;-79
2021/12/10 06:10:04;;;;;;;17.50;15.93;;;0.50;99.90;;;;;;5029518;28;20990;-84
2021/12/10 06:12:31;;;;;;;17.57;16.17;;;0.50;99.90;;;;;;5024333;28;20451;-84
2021/12/10 06:14:58;;;;;;;16.83;15.53;;;0.60;99.90;;;;;;5027632;28;20455;-85
2021/12/10 06:17:25;;;;;;;17.80;16.30;;;0.60;99.90;;;;;;5046044;28;20447;-84
2021/12/10 06:19:52;;;;;;;17.33;15.70;;;0.70;99.90;;;;;;5035974;28;20566;-84
2021/12/10 06:22:20;;;;;;;18.67;16.90;;;0.70;99.90;;;;;;5026615;28;20447;-84
2021/12/10 06:24:47;;;;;;;18.30;16.40;;;0.80;99.90;;;;;;5026561;28;20526;-83
2021/12/10 06:27:14;;;;;;;17.77;16.20;;;0.80;99.90;;;;;;5028391;28;20439;-84
2021/12/10 06:29:42;;;;;;;17.30;15.80;;;0.80;99.90;;;;;;5027084;28;20443;-84
2021/12/10 06:32:09;;;;;;;17.87;16.27;;;0.90;99.90;;;;;;5034793;28;20446;-84
2021/12/10 06:34:37;;;;;;;17.43;15.87;;;0.80;99.90;;;;;;5035077;28;20451;-84
2021/12/10 06:37:05;;;;;;;16.60;15.20;;;0.80;99.90;;;;;;5035363;28;20726;-84
2021/12/10 06:39:34;;;;;;;18.07;16.47;;;0.80;99.90;;;;;;5023675;28;20472;-84
2021/12/10 06:42:02;;;;;;;16.53;15.27;;;0.80;99.90;;;;;;5043745;28;20456;-84
2021/12/10 06:44:30;;;;;;;16.87;15.47;;;0.80;99.90;;;;;;5027703;28;20441;-84
2021/12/10 06:46:57;;;;;;;15.87;14.63;;;0.80;99.90;;;;;;5026967;28;20429;-83
2021/12/10 06:49:24;;;;;;;15.67;14.50;;;0.70;99.90;;;;;;5025715;28;20477;-84
2021/12/10 06:51:52;;;;;;;15.97;14.77;;;0.70;99.90;;;;;;5034710;28;20463;-84
2021/12/10 06:54:19;;;;;;;16.07;14.77;;;0.70;99.90;;;;;;5034070;28;20447;-84
2021/12/10 06:56:47;;;;;;;16.43;15.03;;;0.80;99.90;;;;;;5029417;28;20437;-84
2021/12/10 06:59:14;;;;;;;15.27;14.10;;;0.80;99.90;;;;;;5025819;28;20502;-84
2021/12/10 07:01:43;;;;;;;15.90;14.60;;;0.80;99.90;;;;;;5043032;28;21026;-83
2021/12/10 07:04:14;;;;;;;15.07;13.87;;;0.80;99.90;;;;;;5029098;28;20452;-83
2021/12/10 07:06:44;;;;;;;15.37;14.07;;;0.90;99.90;;;;;;5029666;28;21026;-83
2021/12/10 07:09:14;;;;;;;15.10;13.90;;;0.90;99.90;;;;;;5041073;28;20474;-84
2021/12/10 07:11:41;;;;;;;14.20;13.30;;;0.80;99.90;;;;;;5030677;28;20502;-84
2021/12/10 07:14:09;;;;;;;14.77;13.77;;;0.80;99.90;;;;;;5032268;28;21030;-84
2021/12/10 07:16:36;;;;;;;15.17;13.97;;;0.80;99.90;;;;;;5025964;28;20514;-84
2021/12/10 07:19:05;;;;;;;14.83;13.73;;;0.90;99.90;;;;;;5025855;28;20478;-84
2021/12/10 07:21:37;;;;;;;14.90;13.70;;;0.90;99.90;;;;;;5041929;28;20451;-84
2021/12/10 07:24:07;;;;;;;15.20;13.90;;;0.90;99.90;;;;;;5027183;28;20443;-84
2021/12/10 07:26:34;;;;;;;14.13;13.17;;;0.90;99.90;;;;;;5029600;28;20462;-84
2021/12/10 07:29:02;;;;;;;15.70;14.50;;;0.90;99.90;;;;;;5046770;28;20943;-84
2021/12/10 07:31:31;;;;;;;13.77;12.87;;;0.80;99.90;;;;;;5025615;28;20467;-84
2021/12/10 07:33:58;;;;;;;13.60;12.20;;;0.90;99.90;;;;;;5033847;28;20439;-84
2021/12/10 07:36:25;;;;;;;13.80;12.90;;;1.00;99.90;;;;;;5033973;28;20948;-84
2021/12/10 07:38:56;;;;;;;13.07;12.17;;;1.10;99.90;;;;;;5025059;28;21029;-84
2021/12/10 07:41:23;;;;;;;12.80;11.90;;;1.20;99.90;;;;;;5026673;28;20471;-84
2021/12/10 07:43:50;;;;;;;12.43;11.63;;;1.30;99.90;;;;;;5028027;28;20444;-83
2021/12/10 07:46:18;;;;;;;13.03;11.97;;;1.40;99.90;;;;;;5023786;28;20447;-84
2021/12/10 07:48:48;;;;;;;12.80;11.80;;;1.50;99.90;;;;;;5028279;28;20484;-84
2021/12/10 07:51:20;;;;;;;12.70;11.83;;;1.50;99.90;;;;;;5023304;28;20467;-84
2021/12/10 07:53:48;;;;;;;12.57;11.77;;;1.60;99.90;;;;;;5026060;28;20453;-84
2021/12/10 07:56:16;;;;;;;12.17;11.27;;;1.60;99.90;;;;;;5032742;28;20436;-84
2021/12/10 07:58:43;;;;;;;12.40;11.70;;;1.70;99.90;;;;;;5028780;28;20447;-83
2021/12/10 08:01:12;;;;;;;12.60;11.70;;;1.70;99.90;;;;;;5026351;28;20521;-84
2021/12/10 08:03:39;;;;;;;12.13;11.43;;;1.80;99.90;;;;;;5029930;28;20501;-83
2021/12/10 08:06:08;;;;;;;12.40;11.50;;;1.90;99.90;;;;;;5029000;28;20497;-84
2021/12/10 08:08:35;;;;;;;12.63;11.73;;;1.90;99.90;;;;;;5045886;28;20440;-84
2021/12/10 08:11:04;;;;;;;12.17;11.20;;;2.00;99.90;;;;;;5030495;28;20478;-84
2021/12/10 08:13:31;;;;;;;11.90;11.20;;;2.10;99.90;;;;;;5025199;28;20485;-84
2021/12/10 08:15:57;;;;;;;12.70;11.57;;;2.10;99.90;;;;;;5034159;28;20460;-84
2021/12/10 08:18:25;;;;;;;12.37;11.43;;;2.10;99.90;;;;;;5034691;28;20809;-84
2021/12/10 08:20:52;;;;;;;12.37;11.40;;;2.20;99.90;;;;;;5044818;28;20482;-84
2021/12/10 08:23:20;;;;;;;12.77;11.80;;;2.20;99.90;;;;;;5036097;28;20431;-83
2021/12/10 08:25:48;;;;;;;12.47;11.70;;;2.20;99.90;;;;;;5029542;28;20450;-84
2021/12/10 08:28:15;;;;;;;12.90;11.90;;;2.30;99.90;;;;;;5035945;28;20444;-83
2021/12/10 08:30:42;;;;;;;12.10;11.40;;;2.30;99.90;;;;;;5028321;28;20849;-82
2021/12/10 08:33:13;;;;;;;12.90;12.00;;;2.40;99.90;;;;;;5035027;28;20534;-83
2021/12/10 08:35:42;;;;;;;12.80;11.90;;;2.50;99.90;;;;;;5040708;28;20541;-83
2021/12/10 08:38:09;;;;;;;12.63;11.80;;;2.50;99.90;;;;;;5035187;28;20532;-83
2021/12/10 08:40:44;;;;;;;12.40;11.60;;;2.50;99.90;;;;;;5025627;28;20539;-83
2021/12/10 08:43:11;;;;;;;12.60;11.80;;;2.60;99.90;;;;;;5017513;28;20469;-84
2021/12/10 08:45:40;;;;;;;12.50;11.60;;;2.50;99.90;;;;;;5031102;28;20454;-84
2021/12/10 08:48:08;;;;;;;11.90;11.10;;;2.60;99.90;;;;;;5033307;28;21017;-84
2021/12/10 08:50:37;;;;;;;12.07;11.17;;;2.60;99.90;;;;;;5030592;28;20462;-84
2021/12/10 08:53:06;;;;;;;11.80;11.10;;;2.60;99.90;;;;;;5031528;28;20457;-83
2021/12/10 08:55:37;;;;;;;12.70;11.70;;;2.70;99.90;;;;;;5026522;28;20434;-84
2021/12/10 08:58:06;;;;;;;12.40;11.27;;;2.80;99.90;;;;;;5033513;28;20469;-83
2021/12/10 09:00:35;;;;;;;11.93;11.13;;;2.80;99.90;;;;;;5034456;28;20517;-83
2021/12/10 09:03:02;;;;;;;11.70;11.10;;;2.90;99.90;;;;;;5025085;28;20458;-83
2021/12/10 09:05:30;;;;;;;11.77;11.07;;;2.90;99.90;;;;;;5025309;28;20505;-84
2021/12/10 09:07:58;;;;;;;11.90;11.20;;;2.90;99.90;;;;;;5024873;28;20512;-84
2021/12/10 09:10:30;;;;;;;12.13;11.43;;;3.00;99.90;;;;;;5040139;22;20467;-76
2021/12/10 09:12:57;;;;;;;12.00;11.20;;;3.00;99.90;;;;;;5002676;28;20841;-76
2021/12/10 09:15:27;;;;;;;12.53;11.63;;;3.10;99.90;;;;;;5015898;28;20458;-76
2021/12/10 09:17:58;;;;;;;11.87;11.07;;;3.10;99.90;;;;;;5034004;28;20431;-76
2021/12/10 09:20:35;;;;;;;6.20;5.73;;;3.20;99.90;;;;;;5029598;28;20489;-76
2021/12/10 09:23:02;;;;;;;7.30;6.80;;;3.30;99.90;;;;;;5022410;28;20200;-76
2021/12/10 09:25:29;;;;;;;10.90;10.20;;;3.30;99.90;;;;;;5014229;28;20450;-76
2021/12/10 09:27:56;;;;;;;9.27;8.57;;;3.40;99.90;;;;;;5008735;28;20793;-77
2021/12/10 09:30:27;;;;;;;8.90;8.30;;;3.40;99.90;;;;;;5003704;28;20463;-76
2021/12/10 09:32:54;;;;;;;9.07;8.33;;;3.50;99.90;;;;;;5020848;28;20281;-76
2021/12/10 09:35:24;;;;;;;9.00;8.50;;;3.50;99.90;;;;;;5001642;28;20479;-76
2021/12/10 09:37:51;;;;;;;8.70;8.20;;;3.50;99.90;;;;;;5018619;28;20208;-76
2021/12/10 09:40:22;;;;;;;9.43;8.83;;;3.60;99.90;;;;;;5006103;28;20221;-76
2021/12/10 09:42:49;;;;;;;9.33;8.73;;;3.50;99.90;;;;;;5009826;28;20201;-76
2021/12/10 09:45:20;;;;;;;9.60;8.80;;;3.60;99.90;;;;;;5006019;28;20665;-76
2021/12/10 09:47:49;;;;;;;9.57;8.97;;;3.50;99.90;;;;;;5022638;28;20208;-76
2021/12/10 09:50:17;;;;;;;3.20;3.00;;;3.50;99.90;;;;;;5001048;28;20456;-76
2021/12/10 09:52:45;;;;;;;3.53;3.23;;;3.50;99.90;;;;;;5022135;28;20211;-76
2021/12/10 09:55:14;;;;;;;3.37;3.07;;;3.50;99.90;;;;;;5025326;28;20442;-76
2021/12/10 09:57:42;;;;;;;3.50;3.20;;;3.60;99.90;;;;;;5007083;28;20443;-76
2021/12/10 10:00:14;;;;;;;3.27;2.97;;;3.50;99.90;;;;;;5024857;28;20285;-76
2021/12/10 10:02:42;;;;;;;3.97;3.33;;;3.50;99.90;;;;;;5021015;28;20439;-76
2021/12/10 10:05:11;;;;;;;3.53;3.10;;;3.60;99.90;;;;;;5022211;28;20192;-76
2021/12/10 10:07:39;;;;;;;3.70;3.20;;;3.60;99.90;;;;;;5026637;28;20199;-76
2021/12/10 10:10:09;;;;;;;3.50;3.20;;;3.70;99.90;;;;;;5022074;28;20197;-76
2021/12/10 10:12:39;;;;;;;3.13;2.93;;;3.70;99.90;;;;;;5015329;28;20204;-76
2021/12/10 10:15:10;;;;;;;3.30;3.00;;;3.70;99.90;;;;;;5024685;28;20199;-76
2021/12/10 10:17:37;;;;;;;3.00;2.80;;;3.70;99.90;;;;;;5020038;28;20204;-77
2021/12/10 10:20:06;;;;;;;2.80;2.60;;;3.80;99.90;;;;;;5010269;28;20266;-76
2021/12/10 10:22:34;;;;;;;3.37;2.70;;;3.70;99.90;;;;;;4995290;28;20208;-76
2021/12/10 10:25:01;;;;;;;2.90;2.70;;;3.70;99.90;;;;;;5003404;28;20591;-76
2021/12/10 10:27:32;;;;;;;3.00;2.80;;;3.80;99.90;;;;;;5012908;28;20689;-76
2021/12/10 10:30:08;;;;;;;3.67;3.30;;;3.80;99.90;;;;;;4998952;28;20208;-76
2021/12/10 10:32:36;;;;;;;3.43;2.97;;;3.80;99.90;;;;;;5021167;28;20283;-76
2021/12/10 10:35:08;;;;;;;9.27;8.53;;;3.80;99.90;;;;;;5024671;28;20200;-76
2021/12/10 10:37:36;;;;;;;6.83;6.33;;;3.80;99.90;;;;;;4998061;28;20220;-77
2021/12/10 10:40:05;;;;;;;10.97;10.17;;;3.80;99.90;;;;;;5009139;28;20208;-76
2021/12/10 10:42:33;;;;;;;8.87;8.37;;;3.90;99.90;;;;;;5003354;28;20250;-76
2021/12/10 10:45:07;;;;;;;3.27;3.07;;;4.00;99.90;;;;;;5021010;28;20680;-76
2021/12/10 10:47:34;;;;;;;6.27;5.80;;;4.00;99.90;;;;;;5016763;28;20188;-77
2021/12/10 10:50:11;;;;;;;7.60;7.00;;;4.00;99.90;;;;;;5024991;28;20254;-76
2021/12/10 10:52:43;;;;;;;5.13;4.77;;;4.00;99.90;;;;;;5020762;28;20196;-76
2021/12/10 10:55:21;;;;;;;7.00;6.47;;;4.00;99.90;;;;;;5024925;28;20211;-76
2021/12/10 10:57:52;;;;;;;4.53;4.13;;;4.10;99.90;;;;;;5020607;28;20669;-77
2021/12/10 11:00:29;;;;;;;7.47;6.30;;;4.00;99.90;;;;;;5022971;28;20220;-76
2021/12/10 11:03:03;;;;;;;9.73;9.10;;;4.00;99.90;;;;;;5019427;28;20661;-76
2021/12/10 11:05:30;;;;;;;8.63;8.13;;;3.90;99.90;;;;;;5020571;28;20200;-76
2021/12/10 11:08:00;;;;;;;8.27;7.77;;;3.80;99.90;;;;;;5020492;28;20257;-76
2021/12/10 11:10:32;;;;;;;11.27;10.43;;;3.80;99.90;;;;;;5022101;28;20232;-76
2021/12/10 11:13:10;;;;;;;7.80;7.20;;;3.70;99.90;;;;;;5021198;28;20719;-76
2021/12/10 11:15:38;;;;;;;10.73;10.03;;;3.70;99.90;;;;;;5013181;28;20503;-76
2021/12/10 11:18:05;;;;;;;4.23;3.93;;;3.60;99.90;;;;;;5008848;28;20200;-76
2021/12/10 11:20:35;;;;;;;11.10;10.40;;;3.60;99.90;;;;;;5020139;28;20212;-77
2021/12/10 11:23:06;;;;;;;11.20;10.50;;;3.60;99.90;;;;;;5024124;28;20197;-76
2021/12/10 11:25:38;;;;;;;11.30;10.60;;;3.40;99.90;;;;;;4994362;28;20201;-76
2021/12/10 11:28:08;;;;;;;10.63;10.03;;;3.40;99.90;;;;;;5003079;28;20258;-76
2021/12/10 11:30:35;;;;;;;10.93;10.23;;;3.30;99.90;;;;;;5021644;28;20212;-76
2021/12/10 11:33:11;;;;;;;11.03;10.33;;;3.30;99.90;;;;;;4995562;28;20208;-76
2021/12/10 11:35:41;;;;;;;11.10;10.40;;;3.20;99.90;;;;;;4999683;28;20199;-76
2021/12/10 11:38:11;;;;;;;10.73;10.03;;;3.20;99.90;;;;;;5023068;28;20208;-76
2021/12/10 11:40:45;;;;;;;10.40;9.80;;;3.30;99.90;;;;;;5027274;28;20216;-76
2021/12/10 11:43:21;;;;;;;10.70;10.10;;;3.30;99.90;;;;;;5002903;28;20192;-76
2021/12/10 11:46:03;;;;;;;10.83;10.13;;;3.30;99.90;;;;;;5026490;28;20234;-76
2021/12/10 11:48:33;;;;;;;11.60;10.80;;;3.30;99.90;;;;;;4996973;28;20191;-76
2021/12/10 11:51:06;;;;;;;11.47;10.67;;;3.30;99.90;;;;;;4994048;28;20514;-76
2021/12/10 11:53:42;;;;;;;11.90;11.10;;;3.20;99.90;;;;;;5018731;28;20192;-76
2021/12/10 11:56:12;;;;;;;11.20;10.50;;;3.20;99.90;;;;;;5013807;28;20501;-76
2021/12/10 11:58:39;;;;;;;11.23;10.50;;;3.20;99.90;;;;;;5031107;28;20435;-76
2021/12/10 12:01:14;;;;;;;11.47;10.67;;;3.20;99.90;;;;;;5001724;28;20590;-76
2021/12/10 12:03:41;;;;;;;11.20;10.40;;;3.20;99.90;;;;;;5003673;28;20203;-76
2021/12/10 12:06:07;;;;;;;11.27;10.47;;;3.30;99.90;;;;;;5002734;28;20204;-77
2021/12/10 12:08:39;;;;;;;11.13;10.33;;;3.30;99.90;;;;;;5003783;28;20236;-76
2021/12/10 12:11:09;;;;;;;11.30;10.17;;;3.30;99.90;;;;;;5022510;28;20223;-77
2021/12/10 12:13:39;;;;;;;10.83;10.03;;;3.20;99.90;;;;;;5005416;28;20446;-76
2021/12/10 12:16:10;;;;;;;10.70;10.00;;;3.30;99.90;;;;;;5016229;28;21012;-76
2021/12/10 12:18:40;;;;;;;11.17;10.17;;;3.30;99.90;;;;;;5001394;28;20479;-76
2021/12/10 12:27:10;;;;;;;10.90;10.20;;;3.40;99.90;;;;;;5005649;28;20200;-76
2021/12/10 12:29:38;;;;;;;10.67;10.07;;;3.40;99.90;;;;;;5004011;28;20193;-76
2021/12/10 12:32:11;;;;;;;11.17;10.27;;;3.50;99.90;;;;;;5023005;28;20266;-76
2021/12/10 12:34:38;;;;;;;10.93;10.33;;;3.50;99.90;;;;;;5002980;28;20205;-76
2021/12/10 12:37:06;;;;;;;11.37;10.57;;;3.60;99.90;;;;;;5000652;28;20220;-76
2021/12/10 12:39:38;;;;;;;11.10;10.40;;;3.60;99.90;;;;;;5012183;28;20622;-76
2021/12/10 12:42:09;;;;;;;11.30;10.50;;;3.60;99.90;;;;;;5019239;28;20576;-76
2021/12/10 12:44:41;;;;;;;11.03;10.33;;;3.80;99.90;;;;;;5006227;28;20660;-76
2021/12/10 12:47:13;;;;;;;11.00;10.30;;;3.80;99.90;;;;;;5029326;28;20496;-76
2021/12/10 12:49:57;;;;;;;11.23;10.50;;;3.90;99.90;;;;;;5022557;28;20193;-76
2021/12/10 12:52:26;;;;;;;11.10;10.30;;;4.00;99.90;;;;;;5025753;28;20193;-76
2021/12/10 12:55:18;;;;;;;10.97;10.30;;;4.00;99.90;;;;;;5005079;28;20255;-76
2021/12/10 12:57:49;;;;;;;11.07;10.27;;;4.00;99.90;;;;;;5004931;28;20262;-77
2021/12/10 13:00:21;;;;;;;11.30;10.50;;;4.10;99.90;;;;;;5006620;28;20200;-77
2021/12/10 13:02:50;;;;;;;10.90;10.20;;;4.10;99.90;;;;;;5002263;28;20640;-76
2021/12/10 13:05:17;;;;;;;10.80;10.10;;;4.20;99.90;;;;;;5007069;28;20208;-76